sensor_id;sensor_type;location;lat;lon;timestamp;temperature;humidity
21551;DHT22;10936;49.836;7.078;2022-12-18T07:00:38;17.00;81.90
21551;DHT22;10936;49.836;7.078;2022-12-18T07:03:03;17.00;82.00
21551;DHT22;10936;49.836;7.078;2022-12-18T07:05:29;17.10;82.00
21551;DHT22;10936;49.836;7.078;2022-12-18T07:07:54;17.00;81.90
21551;DHT22;10936;49.836;7.078;2022-12-18T07:10:20;17.00;81.90
21551;DHT22;10936;49.836;7.078;2022-12-18T07:12:46;17.00;81.80
21551;DHT22;10936;49.836;7.078;2022-12-18T07:15:11;17.00;81.80
21551;DHT22;10936;49.836;7.078;2022-12-18T07:17:37;17.00;81.90
21551;DHT22;10936;49.836;7.078;2022-12-18T07:20:03;17.00;81.90
21551;DHT22;10936;49.836;7.078;2022-12-18T07:22:29;17.10;82.00
21551;DHT22;10936;49.836;7.078;2022-12-18T07:24:54;17.00;82.10
21551;DHT22;10936;49.836;7.078;2022-12-18T07:27:21;17.00;82.10
21551;DHT22;10936;49.836;7.078;2022-12-18T07:29:46;17.00;82.10
21551;DHT22;10936;49.836;7.078;2022-12-18T07:32:12;17.10;82.20
21551;DHT22;10936;49.836;7.078;2022-12-18T07:34:37;17.00;82.10
21551;DHT22;10936;49.836;7.078;2022-12-18T07:37:03;17.10;82.20
21551;DHT22;10936;49.836;7.078;2022-12-18T07:39:29;17.10;82.20
21551;DHT22;10936;49.836;7.078;2022-12-18T07:41:55;17.10;82.20
21551;DHT22;10936;49.836;7.078;2022-12-18T07:44:39;17.00;82.20
21551;DHT22;10936;49.836;7.078;2022-12-18T07:47:05;17.10;82.10
21551;DHT22;10936;49.836;7.078;2022-12-18T07:49:30;17.10;82.10
21551;DHT22;10936;49.836;7.078;2022-12-18T07:51:56;17.10;82.20
21551;DHT22;10936;49.836;7.078;2022-12-18T07:54:23;17.10;82.20
21551;DHT22;10936;49.836;7.078;2022-12-18T07:56:49;17.10;82.10
21551;DHT22;10936;49.836;7.078;2022-12-18T07:59:14;17.00;82.00
21551;DHT22;10936;49.836;7.078;2022-12-18T08:01:40;17.10;82.00
21551;DHT22;10936;49.836;7.078;2022-12-18T08:04:05;17.10;82.00
21551;DHT22;10936;49.836;7.078;2022-12-18T08:06:31;17.10;82.00
21551;DHT22;10936;49.836;7.078;2022-12-18T08:08:57;17.10;82.00
21551;DHT22;10936;49.836;7.078;2022-12-18T08:11:25;17.10;81.90
21551;DHT22;10936;49.836;7.078;2022-12-18T08:13:51;17.10;81.90
21551;DHT22;10936;49.836;7.078;2022-12-18T08:16:19;17.10;81.90
21551;DHT22;10936;49.836;7.078;2022-12-18T08:18:44;17.20;82.00
21551;DHT22;10936;49.836;7.078;2022-12-18T08:21:11;17.20;81.90
21551;DHT22;10936;49.836;7.078;2022-12-18T08:23:37;17.20;81.90
21551;DHT22;10936;49.836;7.078;2022-12-18T08:26:02;17.20;81.90
21551;DHT22;10936;49.836;7.078;2022-12-18T08:28:28;17.20;81.90
21551;DHT22;10936;49.836;7.078;2022-12-18T08:30:53;17.20;81.90
21551;DHT22;10936;49.836;7.078;2022-12-18T08:33:19;17.20;81.90
21551;DHT22;10936;49.836;7.078;2022-12-18T08:35:44;17.20;81.90
21551;DHT22;10936;49.836;7.078;2022-12-18T08:38:10;17.20;81.90
21551;DHT22;10936;49.836;7.078;2022-12-18T08:40:36;17.20;81.90
21551;DHT22;10936;49.836;7.078;2022-12-18T08:43:01;17.20;81.90
21551;DHT22;10936;49.836;7.078;2022-12-18T08:45:46;17.20;82.00
21551;DHT22;10936;49.836;7.078;2022-12-18T08:48:11;17.30;82.10
21551;DHT22;10936;49.836;7.078;2022-12-18T08:50:37;17.30;82.10
21551;DHT22;10936;49.836;7.078;2022-12-18T08:53:03;17.30;82.10
21551;DHT22;10936;49.836;7.078;2022-12-18T08:55:29;17.30;82.10
21551;DHT22;10936;49.836;7.078;2022-12-18T08:57:54;17.30;82.10
21551;DHT22;10936;49.836;7.078;2022-12-18T09:00:20;17.30;82.10
21551;DHT22;10936;49.836;7.078;2022-12-18T09:02:45;17.30;82.20
21551;DHT22;10936;49.836;7.078;2022-12-18T09:05:11;17.40;82.20
21551;DHT22;10936;49.836;7.078;2022-12-18T09:07:36;17.40;82.20
21551;DHT22;10936;49.836;7.078;2022-12-18T09:10:03;17.40;82.20
21551;DHT22;10936;49.836;7.078;2022-12-18T09:12:28;17.40;82.20
21551;DHT22;10936;49.836;7.078;2022-12-18T09:14:54;17.40;82.20
21551;DHT22;10936;49.836;7.078;2022-12-18T09:17:21;17.40;82.20
21551;DHT22;10936;49.836;7.078;2022-12-18T09:19:47;17.40;82.20
21551;DHT22;10936;49.836;7.078;2022-12-18T09:22:12;17.40;82.20
21551;DHT22;10936;49.836;7.078;2022-12-18T09:24:38;17.50;82.30
21551;DHT22;10936;49.836;7.078;2022-12-18T09:27:03;17.50;82.40
21551;DHT22;10936;49.836;7.078;2022-12-18T09:29:29;17.50;82.40
21551;DHT22;10936;49.836;7.078;2022-12-18T09:31:54;17.50;82.40
21551;DHT22;10936;49.836;7.078;2022-12-18T09:34:20;17.60;82.50
21551;DHT22;10936;49.836;7.078;2022-12-18T09:36:47;17.60;82.50
21551;DHT22;10936;49.836;7.078;2022-12-18T09:39:13;17.50;82.50
21551;DHT22;10936;49.836;7.078;2022-12-18T09:41:51;17.60;82.70
21551;DHT22;10936;49.836;7.078;2022-12-18T09:44:34;17.60;83.00
21551;DHT22;10936;49.836;7.078;2022-12-18T09:49:47;17.70;83.30
21551;DHT22;10936;49.836;7.078;2022-12-18T09:52:26;17.60;83.30
21551;DHT22;10936;49.836;7.078;2022-12-18T09:55:04;17.60;83.40
21551;DHT22;10936;49.836;7.078;2022-12-18T09:57:33;17.70;83.50
21551;DHT22;10936;49.836;7.078;2022-12-18T10:00:11;17.70;83.60
21551;DHT22;10936;49.836;7.078;2022-12-18T10:02:40;17.70;83.80
21551;DHT22;10936;49.836;7.078;2022-12-18T10:08:17;17.70;84.40
21551;DHT22;10936;49.836;7.078;2022-12-18T10:10:49;17.70;84.40
21551;DHT22;10936;49.836;7.078;2022-12-18T10:13:18;17.80;84.50
21551;DHT22;10936;49.836;7.078;2022-12-18T10:18:25;17.80;84.50
21551;DHT22;10936;49.836;7.078;2022-12-18T10:21:04;17.80;84.60
21551;DHT22;10936;49.836;7.078;2022-12-18T10:23:40;17.80;84.60
21551;DHT22;10936;49.836;7.078;2022-12-18T10:26:11;17.80;84.60
21551;DHT22;10936;49.836;7.078;2022-12-18T10:28:41;17.80;84.60
21551;DHT22;10936;49.836;7.078;2022-12-18T10:31:23;17.80;84.60
21551;DHT22;10936;49.836;7.078;2022-12-18T10:33:49;17.80;84.50
21551;DHT22;10936;49.836;7.078;2022-12-18T10:36:15;17.80;84.50
21551;DHT22;10936;49.836;7.078;2022-12-18T10:38:41;17.80;84.40
21551;DHT22;10936;49.836;7.078;2022-12-18T10:41:22;17.80;85.30
21551;DHT22;10936;49.836;7.078;2022-12-18T10:44:17;17.80;84.40
21551;DHT22;10936;49.836;7.078;2022-12-18T10:46:45;17.80;84.30
21551;DHT22;10936;49.836;7.078;2022-12-18T10:49:26;17.80;84.30
21551;DHT22;10936;49.836;7.078;2022-12-18T10:55:04;17.80;84.40
21551;DHT22;10936;49.836;7.078;2022-12-18T10:57:39;17.90;84.40
21551;DHT22;10936;49.836;7.078;2022-12-18T11:00:29;17.90;84.40
21551;DHT22;10936;49.836;7.078;2022-12-18T11:02:56;17.90;84.60
21551;DHT22;10936;49.836;7.078;2022-12-18T11:05:32;17.90;84.60
21551;DHT22;10936;49.836;7.078;2022-12-18T11:07:59;17.90;84.60
21551;DHT22;10936;49.836;7.078;2022-12-18T11:10:36;17.90;84.60
21551;DHT22;10936;49.836;7.078;2022-12-18T11:13:15;17.90;84.60
21551;DHT22;10936;49.836;7.078;2022-12-18T11:15:42;17.80;84.50
21551;DHT22;10936;49.836;7.078;2022-12-18T11:18:28;17.80;84.50
21551;DHT22;10936;49.836;7.078;2022-12-18T11:21:04;17.80;84.50
21551;DHT22;10936;49.836;7.078;2022-12-18T11:23:31;17.80;84.60
21551;DHT22;10936;49.836;7.078;2022-12-18T11:25:59;17.80;84.50
21551;DHT22;10936;49.836;7.078;2022-12-18T11:28:49;17.80;84.50
21551;DHT22;10936;49.836;7.078;2022-12-18T11:34:01;17.80;84.60
21551;DHT22;10936;49.836;7.078;2022-12-18T11:36:38;17.90;85.50
21551;DHT22;10936;49.836;7.078;2022-12-18T11:39:20;17.90;84.70
21551;DHT22;10936;49.836;7.078;2022-12-18T11:42:10;17.80;84.70
21551;DHT22;10936;49.836;7.078;2022-12-18T11:44:58;17.90;84.90
21551;DHT22;10936;49.836;7.078;2022-12-18T11:50:16;17.90;84.90
21551;DHT22;10936;49.836;7.078;2022-12-18T11:52:42;17.80;84.80
21551;DHT22;10936;49.836;7.078;2022-12-18T11:55:12;17.80;84.90
21551;DHT22;10936;49.836;7.078;2022-12-18T11:57:54;17.80;84.90
21551;DHT22;10936;49.836;7.078;2022-12-18T12:00:22;17.80;84.90
21551;DHT22;10936;49.836;7.078;2022-12-18T12:08:33;17.80;85.20
21551;DHT22;10936;49.836;7.078;2022-12-18T12:11:32;17.80;85.00
21551;DHT22;10936;49.836;7.078;2022-12-18T12:17:14;17.80;85.00
21551;DHT22;10936;49.836;7.078;2022-12-18T12:22:53;17.80;85.10
21551;DHT22;10936;49.836;7.078;2022-12-18T12:26:09;17.90;86.10
21551;DHT22;10936;49.836;7.078;2022-12-18T12:31:07;17.80;85.20
21551;DHT22;10936;49.836;7.078;2022-12-18T12:33:56;17.80;85.30
21551;DHT22;10936;49.836;7.078;2022-12-18T12:39:23;17.90;85.60
21551;DHT22;10936;49.836;7.078;2022-12-18T12:41:53;17.90;85.70
21551;DHT22;10936;49.836;7.078;2022-12-18T12:44:57;17.80;85.90
21551;DHT22;10936;49.836;7.078;2022-12-18T12:47:30;17.90;85.90
21551;DHT22;10936;49.836;7.078;2022-12-18T12:49:59;17.80;85.80
21551;DHT22;10936;49.836;7.078;2022-12-18T12:52:42;17.90;85.70
21551;DHT22;10936;49.836;7.078;2022-12-18T12:55:16;17.80;85.70
21551;DHT22;10936;49.836;7.078;2022-12-18T12:58:02;17.80;85.80
21551;DHT22;10936;49.836;7.078;2022-12-18T13:00:47;17.80;85.80
21551;DHT22;10936;49.836;7.078;2022-12-18T13:06:14;17.80;85.90
21551;DHT22;10936;49.836;7.078;2022-12-18T13:08:55;17.80;85.90
21551;DHT22;10936;49.836;7.078;2022-12-18T13:11:45;17.80;85.90
21551;DHT22;10936;49.836;7.078;2022-12-18T13:14:40;17.80;85.90
21551;DHT22;10936;49.836;7.078;2022-12-18T13:20:04;17.80;85.90
21551;DHT22;10936;49.836;7.078;2022-12-18T13:22:39;17.80;86.00
21551;DHT22;10936;49.836;7.078;2022-12-18T13:25:58;17.80;86.10
21551;DHT22;10936;49.836;7.078;2022-12-18T13:43:46;17.80;86.30
21551;DHT22;10936;49.836;7.078;2022-12-18T13:46:51;17.80;86.40
21551;DHT22;10936;49.836;7.078;2022-12-18T13:51:42;17.80;86.40
21551;DHT22;10936;49.836;7.078;2022-12-18T13:54:33;17.80;86.60
21551;DHT22;10936;49.836;7.078;2022-12-18T13:57:00;17.80;86.50
21551;DHT22;10936;49.836;7.078;2022-12-18T14:02:01;17.80;86.50
21551;DHT22;10936;49.836;7.078;2022-12-18T14:04:35;17.80;86.60
21551;DHT22;10936;49.836;7.078;2022-12-18T14:07:27;17.80;86.60
21551;DHT22;10936;49.836;7.078;2022-12-18T14:09:58;17.80;86.80
21551;DHT22;10936;49.836;7.078;2022-12-18T14:12:30;17.80;86.80
21551;DHT22;10936;49.836;7.078;2022-12-18T14:15:34;17.80;86.80
21551;DHT22;10936;49.836;7.078;2022-12-18T14:18:02;17.80;86.90
21551;DHT22;10936;49.836;7.078;2022-12-18T14:20:35;17.80;87.00
21551;DHT22;10936;49.836;7.078;2022-12-18T14:23:01;17.80;87.10
21551;DHT22;10936;49.836;7.078;2022-12-18T14:25:28;17.80;87.10
21551;DHT22;10936;49.836;7.078;2022-12-18T14:28:23;17.70;87.10
21551;DHT22;10936;49.836;7.078;2022-12-18T14:30:49;17.70;87.10
21551;DHT22;10936;49.836;7.078;2022-12-18T14:33:23;17.80;87.30
21551;DHT22;10936;49.836;7.078;2022-12-18T14:38:28;17.70;87.20
21551;DHT22;10936;49.836;7.078;2022-12-18T14:41:03;17.70;87.30
21551;DHT22;10936;49.836;7.078;2022-12-18T14:43:32;17.70;87.30
21551;DHT22;10936;49.836;7.078;2022-12-18T14:45:58;17.70;87.30
21551;DHT22;10936;49.836;7.078;2022-12-18T14:48:37;17.70;88.10
21551;DHT22;10936;49.836;7.078;2022-12-18T14:51:17;17.70;87.40
21551;DHT22;10936;49.836;7.078;2022-12-18T14:53:46;17.70;87.50
21551;DHT22;10936;49.836;7.078;2022-12-18T14:56:19;17.70;87.50
21551;DHT22;10936;49.836;7.078;2022-12-18T14:58:47;17.70;87.60
21551;DHT22;10936;49.836;7.078;2022-12-18T15:01:56;17.70;87.60
21551;DHT22;10936;49.836;7.078;2022-12-18T15:09:30;17.70;87.70
21551;DHT22;10936;49.836;7.078;2022-12-18T15:12:00;17.70;87.70
21551;DHT22;10936;49.836;7.078;2022-12-18T15:14:39;17.60;87.70
21551;DHT22;10936;49.836;7.078;2022-12-18T15:17:21;17.70;87.80
21551;DHT22;10936;49.836;7.078;2022-12-18T15:19:49;17.70;87.80
21551;DHT22;10936;49.836;7.078;2022-12-18T15:24:45;17.60;87.80
21551;DHT22;10936;49.836;7.078;2022-12-18T15:27:29;17.60;87.80
21551;DHT22;10936;49.836;7.078;2022-12-18T15:32:43;17.60;87.80
21551;DHT22;10936;49.836;7.078;2022-12-18T15:35:19;17.60;87.80
21551;DHT22;10936;49.836;7.078;2022-12-18T15:37:45;17.70;88.00
21551;DHT22;10936;49.836;7.078;2022-12-18T15:40:16;17.60;88.00
21551;DHT22;10936;49.836;7.078;2022-12-18T15:42:42;17.60;88.00
21551;DHT22;10936;49.836;7.078;2022-12-18T15:45:27;17.60;88.00
21551;DHT22;10936;49.836;7.078;2022-12-18T15:47:52;17.60;88.10
21551;DHT22;10936;49.836;7.078;2022-12-18T15:50:18;17.60;88.10
21551;DHT22;10936;49.836;7.078;2022-12-18T15:52:45;17.60;88.10
21551;DHT22;10936;49.836;7.078;2022-12-18T15:55:17;17.60;88.10
21551;DHT22;10936;49.836;7.078;2022-12-18T15:58:02;17.60;88.10
21551;DHT22;10936;49.836;7.078;2022-12-18T16:00:28;17.60;88.20
21551;DHT22;10936;49.836;7.078;2022-12-18T16:02:54;17.60;88.20
21551;DHT22;10936;49.836;7.078;2022-12-18T16:05:20;17.60;88.20
21551;DHT22;10936;49.836;7.078;2022-12-18T16:07:47;17.60;88.20
21551;DHT22;10936;49.836;7.078;2022-12-18T16:10:13;17.60;88.20
21551;DHT22;10936;49.836;7.078;2022-12-18T16:12:39;17.60;88.20
21551;DHT22;10936;49.836;7.078;2022-12-18T16:15:06;17.60;88.30
21551;DHT22;10936;49.836;7.078;2022-12-18T16:17:32;17.60;88.30
21551;DHT22;10936;49.836;7.078;2022-12-18T16:19:58;17.60;88.30
21551;DHT22;10936;49.836;7.078;2022-12-18T16:22:28;17.60;88.30
21551;DHT22;10936;49.836;7.078;2022-12-18T16:24:55;17.60;88.30
21551;DHT22;10936;49.836;7.078;2022-12-18T16:27:22;17.60;88.40
21551;DHT22;10936;49.836;7.078;2022-12-18T16:29:48;17.60;88.30
21551;DHT22;10936;49.836;7.078;2022-12-18T16:32:19;17.60;88.30
21551;DHT22;10936;49.836;7.078;2022-12-18T16:34:45;17.60;88.30
21551;DHT22;10936;49.836;7.078;2022-12-18T16:37:13;17.60;88.20
21551;DHT22;10936;49.836;7.078;2022-12-18T16:39:39;17.60;88.20
21551;DHT22;10936;49.836;7.078;2022-12-18T16:42:14;17.60;88.30
21551;DHT22;10936;49.836;7.078;2022-12-18T16:44:42;17.60;88.30
21551;DHT22;10936;49.836;7.078;2022-12-18T16:47:07;17.60;88.20
21551;DHT22;10936;49.836;7.078;2022-12-18T16:49:33;17.50;88.10
21551;DHT22;10936;49.836;7.078;2022-12-18T16:52:02;17.60;88.20
21551;DHT22;10936;49.836;7.078;2022-12-18T16:54:28;17.60;88.30
21551;DHT22;10936;49.836;7.078;2022-12-18T16:56:59;17.60;88.30
21551;DHT22;10936;49.836;7.078;2022-12-18T16:59:26;17.50;88.10
21551;DHT22;10936;49.836;7.078;2022-12-18T17:01:52;17.60;88.30
21551;DHT22;10936;49.836;7.078;2022-12-18T17:04:18;17.50;88.10
21551;DHT22;10936;49.836;7.078;2022-12-18T17:06:45;17.50;88.20
21551;DHT22;10936;49.836;7.078;2022-12-18T17:09:17;17.60;88.20
21551;DHT22;10936;49.836;7.078;2022-12-18T17:11:43;17.60;88.30
21551;DHT22;10936;49.836;7.078;2022-12-18T17:14:12;17.60;88.30
21551;DHT22;10936;49.836;7.078;2022-12-18T17:16:38;17.60;88.30
21551;DHT22;10936;49.836;7.078;2022-12-18T17:19:04;17.50;89.00
21551;DHT22;10936;49.836;7.078;2022-12-18T17:21:30;17.60;88.30
21551;DHT22;10936;49.836;7.078;2022-12-18T17:23:58;17.60;88.30
21551;DHT22;10936;49.836;7.078;2022-12-18T17:26:24;17.60;88.30
21551;DHT22;10936;49.836;7.078;2022-12-18T17:28:50;17.60;88.30
21551;DHT22;10936;49.836;7.078;2022-12-18T17:31:20;17.60;88.30
21551;DHT22;10936;49.836;7.078;2022-12-18T17:33:47;17.60;88.30
21551;DHT22;10936;49.836;7.078;2022-12-18T17:36:13;17.50;88.20
21551;DHT22;10936;49.836;7.078;2022-12-18T17:38:43;17.50;88.30
21551;DHT22;10936;49.836;7.078;2022-12-18T17:41:14;17.50;88.30
21551;DHT22;10936;49.836;7.078;2022-12-18T17:43:39;17.50;88.30
21551;DHT22;10936;49.836;7.078;2022-12-18T17:46:12;17.50;88.30
21551;DHT22;10936;49.836;7.078;2022-12-18T17:48:37;17.50;88.30
21551;DHT22;10936;49.836;7.078;2022-12-18T17:51:05;17.50;88.30
21551;DHT22;10936;49.836;7.078;2022-12-18T17:53:31;17.50;88.40
21551;DHT22;10936;49.836;7.078;2022-12-18T17:55:58;17.50;88.30
21551;DHT22;10936;49.836;7.078;2022-12-18T17:58:26;17.50;88.30
21551;DHT22;10936;49.836;7.078;2022-12-18T18:00:51;17.50;88.40
21551;DHT22;10936;49.836;7.078;2022-12-18T18:03:17;17.50;88.40
21551;DHT22;10936;49.836;7.078;2022-12-18T18:05:43;17.50;88.40
21551;DHT22;10936;49.836;7.078;2022-12-18T18:08:08;17.50;88.40
21551;DHT22;10936;49.836;7.078;2022-12-18T18:10:35;17.50;88.40
21551;DHT22;10936;49.836;7.078;2022-12-18T18:13:06;17.50;88.50
21551;DHT22;10936;49.836;7.078;2022-12-18T18:15:56;17.50;88.50
21551;DHT22;10936;49.836;7.078;2022-12-18T18:18:22;17.50;88.50
21551;DHT22;10936;49.836;7.078;2022-12-18T18:20:48;17.50;88.50
21551;DHT22;10936;49.836;7.078;2022-12-18T18:23:13;17.50;88.60
21551;DHT22;10936;49.836;7.078;2022-12-18T18:25:39;17.50;88.60
21551;DHT22;10936;49.836;7.078;2022-12-18T18:28:04;17.50;88.60
21551;DHT22;10936;49.836;7.078;2022-12-18T18:30:30;17.50;88.60
21551;DHT22;10936;49.836;7.078;2022-12-18T18:32:55;17.50;88.60
21551;DHT22;10936;49.836;7.078;2022-12-18T18:35:21;17.50;88.60
21551;DHT22;10936;49.836;7.078;2022-12-18T18:37:47;17.50;88.60
21551;DHT22;10936;49.836;7.078;2022-12-18T18:40:13;17.50;88.60
21551;DHT22;10936;49.836;7.078;2022-12-18T18:42:38;17.50;88.60
21551;DHT22;10936;49.836;7.078;2022-12-18T18:45:04;17.50;88.60
21551;DHT22;10936;49.836;7.078;2022-12-18T18:47:30;17.50;88.70
21551;DHT22;10936;49.836;7.078;2022-12-18T18:49:55;17.50;88.60
21551;DHT22;10936;49.836;7.078;2022-12-18T18:52:21;17.50;88.60
21551;DHT22;10936;49.836;7.078;2022-12-18T18:54:47;17.50;88.70
21551;DHT22;10936;49.836;7.078;2022-12-18T18:57:14;17.50;88.60
21551;DHT22;10936;49.836;7.078;2022-12-18T18:59:40;17.50;88.70
21551;DHT22;10936;49.836;7.078;2022-12-18T19:02:07;17.50;88.70
21551;DHT22;10936;49.836;7.078;2022-12-18T19:04:33;17.50;88.70
21551;DHT22;10936;49.836;7.078;2022-12-18T19:06:59;17.50;88.70
21551;DHT22;10936;49.836;7.078;2022-12-18T19:09:25;17.50;88.70
21551;DHT22;10936;49.836;7.078;2022-12-18T19:11:50;17.50;88.70
21551;DHT22;10936;49.836;7.078;2022-12-18T19:14:35;17.50;88.70
21551;DHT22;10936;49.836;7.078;2022-12-18T19:17:00;17.50;88.70
21551;DHT22;10936;49.836;7.078;2022-12-18T19:19:26;17.50;89.50
21551;DHT22;10936;49.836;7.078;2022-12-18T19:21:51;17.50;88.70
21551;DHT22;10936;49.836;7.078;2022-12-18T19:24:17;17.50;88.70
21551;DHT22;10936;49.836;7.078;2022-12-18T19:26:42;17.50;88.70
21551;DHT22;10936;49.836;7.078;2022-12-18T19:29:09;17.50;88.80
21551;DHT22;10936;49.836;7.078;2022-12-18T19:31:35;17.50;88.80
21551;DHT22;10936;49.836;7.078;2022-12-18T19:34:03;17.50;88.80
21551;DHT22;10936;49.836;7.078;2022-12-18T19:36:30;17.50;88.80
21551;DHT22;10936;49.836;7.078;2022-12-18T19:38:59;17.50;88.80
21551;DHT22;10936;49.836;7.078;2022-12-18T19:41:25;17.50;88.80
21551;DHT22;10936;49.836;7.078;2022-12-18T19:43:51;17.50;88.80
21551;DHT22;10936;49.836;7.078;2022-12-18T19:46:19;17.50;88.80
21551;DHT22;10936;49.836;7.078;2022-12-18T19:48:46;17.50;88.80
21551;DHT22;10936;49.836;7.078;2022-12-18T19:51:20;17.50;88.80
21551;DHT22;10936;49.836;7.078;2022-12-18T19:53:47;17.50;88.80
21551;DHT22;10936;49.836;7.078;2022-12-18T19:56:15;17.50;88.80
21551;DHT22;10936;49.836;7.078;2022-12-18T19:58:41;17.50;88.90
21551;DHT22;10936;49.836;7.078;2022-12-18T20:01:11;17.50;88.80
21551;DHT22;10936;49.836;7.078;2022-12-18T20:03:38;17.50;88.80
21551;DHT22;10936;49.836;7.078;2022-12-18T20:08:55;17.50;88.80
21551;DHT22;10936;49.836;7.078;2022-12-18T20:11:21;17.50;88.80
21551;DHT22;10936;49.836;7.078;2022-12-18T20:13:46;17.50;88.90
21551;DHT22;10936;49.836;7.078;2022-12-18T20:16:12;17.50;88.90
21551;DHT22;10936;49.836;7.078;2022-12-18T20:18:38;17.50;88.90
21551;DHT22;10936;49.836;7.078;2022-12-18T20:21:04;17.50;88.90
21551;DHT22;10936;49.836;7.078;2022-12-18T20:23:30;17.50;88.90
21551;DHT22;10936;49.836;7.078;2022-12-18T20:25:55;17.50;89.00
21551;DHT22;10936;49.836;7.078;2022-12-18T20:28:22;17.50;88.90
21551;DHT22;10936;49.836;7.078;2022-12-18T20:30:48;17.50;89.00
21551;DHT22;10936;49.836;7.078;2022-12-18T20:33:13;17.50;89.00
21551;DHT22;10936;49.836;7.078;2022-12-18T20:35:39;17.50;89.00
21551;DHT22;10936;49.836;7.078;2022-12-18T20:38:05;17.50;89.00
21551;DHT22;10936;49.836;7.078;2022-12-18T20:40:31;17.50;89.10
21551;DHT22;10936;49.836;7.078;2022-12-18T20:42:57;17.50;89.00
21551;DHT22;10936;49.836;7.078;2022-12-18T20:45:23;17.50;89.00
21551;DHT22;10936;49.836;7.078;2022-12-18T20:47:48;17.50;89.10
21551;DHT22;10936;49.836;7.078;2022-12-18T20:50:14;17.50;89.20
21551;DHT22;10936;49.836;7.078;2022-12-18T20:52:39;17.50;90.00
21551;DHT22;10936;49.836;7.078;2022-12-18T20:55:05;17.50;89.30
21551;DHT22;10936;49.836;7.078;2022-12-18T20:57:31;17.50;89.20
21551;DHT22;10936;49.836;7.078;2022-12-18T20:59:57;17.50;89.20
21551;DHT22;10936;49.836;7.078;2022-12-18T21:02:23;17.50;89.20
21551;DHT22;10936;49.836;7.078;2022-12-18T21:04:48;17.50;89.30
21551;DHT22;10936;49.836;7.078;2022-12-18T21:07:14;17.50;89.30
21551;DHT22;10936;49.836;7.078;2022-12-18T21:09:39;17.50;89.40
21551;DHT22;10936;49.836;7.078;2022-12-18T21:12:11;17.50;89.40
21551;DHT22;10936;49.836;7.078;2022-12-18T21:14:56;17.50;89.40
21551;DHT22;10936;49.836;7.078;2022-12-18T21:17:24;17.50;89.40
21551;DHT22;10936;49.836;7.078;2022-12-18T21:19:49;17.50;89.40
21551;DHT22;10936;49.836;7.078;2022-12-18T21:22:15;17.50;89.40
21551;DHT22;10936;49.836;7.078;2022-12-18T21:24:40;17.50;89.40
21551;DHT22;10936;49.836;7.078;2022-12-18T21:27:06;17.50;89.40
21551;DHT22;10936;49.836;7.078;2022-12-18T21:29:32;17.50;89.40
21551;DHT22;10936;49.836;7.078;2022-12-18T21:31:59;17.50;89.40
21551;DHT22;10936;49.836;7.078;2022-12-18T21:34:27;17.50;89.40
21551;DHT22;10936;49.836;7.078;2022-12-18T21:36:54;17.50;89.40
21551;DHT22;10936;49.836;7.078;2022-12-18T21:39:21;17.50;89.40
21551;DHT22;10936;49.836;7.078;2022-12-18T21:41:46;17.50;89.40
21551;DHT22;10936;49.836;7.078;2022-12-18T21:44:31;17.50;89.30
21551;DHT22;10936;49.836;7.078;2022-12-18T21:46:57;17.50;89.30
21551;DHT22;10936;49.836;7.078;2022-12-18T21:49:23;17.50;89.30
21551;DHT22;10936;49.836;7.078;2022-12-18T21:51:51;17.50;89.30
21551;DHT22;10936;49.836;7.078;2022-12-18T21:54:18;17.50;89.30
21551;DHT22;10936;49.836;7.078;2022-12-18T21:56:52;17.50;89.40
21551;DHT22;10936;49.836;7.078;2022-12-18T21:59:23;17.40;89.30
21551;DHT22;10936;49.836;7.078;2022-12-18T22:01:50;17.50;89.40
21551;DHT22;10936;49.836;7.078;2022-12-18T22:04:16;17.50;89.30
21551;DHT22;10936;49.836;7.078;2022-12-18T22:06:43;17.40;89.30
21551;DHT22;10936;49.836;7.078;2022-12-18T22:09:11;17.50;89.30
21551;DHT22;10936;49.836;7.078;2022-12-18T22:11:37;17.40;89.30
21551;DHT22;10936;49.836;7.078;2022-12-18T22:14:02;17.40;89.30
21551;DHT22;10936;49.836;7.078;2022-12-18T22:16:28;17.40;89.30
21551;DHT22;10936;49.836;7.078;2022-12-18T22:18:54;17.40;89.30
21551;DHT22;10936;49.836;7.078;2022-12-18T22:23:58;17.40;89.30
21551;DHT22;10936;49.836;7.078;2022-12-18T22:26:25;17.40;89.30
21551;DHT22;10936;49.836;7.078;2022-12-18T22:28:51;17.40;89.40
